« Back
NWS Peachtree City, Ga » Text Product » CSG Terminal Aerodrome Forecast


Printer-friendly Version
Current Version              Previous Versions:   1  2  3  4  5  6  7  8  9  

Terminal Aerodrome Forecast

893
FTUS42 KFFC 241721
TAFCSG
TAF
KCSG 241721Z 2418/2518 20005KT P6SM VCSH SCT050
     FM250200 00000KT P6SM SCT250
     FM251500 26003KT P6SM SCT035=

USA.gov is the U.S. government's official web portal to all federal, state and local government web resources and services.